Flight Track Log - Related Links

Times and Time Zones

All times are in EDT time to prevent confusion due to time zone crossing. See the ACA831 flight status page for this flight to view local times or setup timezone preferences in your user account.

Time Position Orientation Groundspeed Altitude Reporting Facility
EDT Latitude Longitude Course Direction KTS MPH feet Rate Location/Type
Mon 06:34:22 AM 46.2420 6.1140 44° Northeast 171 197 1,400  Level FlightAware ADS-B
Mon 06:35:07 AM 46.2650 6.1530 50° Northeast 179 206 3,200 2,320 Climbing FlightAware ADS-B
Mon 06:35:37 AM 46.2830 6.1780 44° Northeast 186 214 4,300 1,855 Climbing FlightAware ADS-B
Mon 06:36:02 AM 46.3010 6.2020 43° Northeast 213 245 4,900 1,527 Climbing FlightAware ADS-B
Mon 06:36:32 AM 46.3220 6.2330 46° Northeast 242 278 5,700 1,800 Climbing FlightAware ADS-B
Mon 06:37:02 AM 46.3450 6.2680 46° Northeast 266 306 6,700 2,640 Climbing FlightAware ADS-B
Mon 06:37:22 AM 46.3690 6.2970 40° Northeast 277 319 7,900 3,086 Climbing FlightAware ADS-B
Mon 06:37:37 AM 46.3850 6.3030 15° North 281 323 8,500 3,429 Climbing FlightAware ADS-B
Mon 06:37:57 AM 46.4190 6.2830 338° Northwest 279 321 9,900 2,500 Climbing FlightAware ADS-B
Mon 06:38:37 AM 46.4520 6.2190 307° West 319 367 11,000 1,425 Climbing FlightAware ADS-B
Mon 06:39:17 AM 46.4890 6.1420 305° West 367 422 11,800 1,733 Climbing FlightAware ADS-B
Mon 06:40:07 AM 46.5410 6.0350 305° West 393 452 13,600 2,463 Climbing FlightAware ADS-B
Mon 06:40:52 AM 46.5890 5.9370 306° West 396 456 15,700 2,467 Climbing FlightAware ADS-B
Mon 06:41:37 AM 46.6330 5.8470 305° West 407 468 17,300 2,259 Climbing FlightAware ADS-B
Mon 06:42:17 AM 46.6800 5.7510 306° West 419 482 18,900 2,259 Climbing FlightAware ADS-B
Mon 06:43:02 AM 46.7350 5.6360 305° West 435 501 20,500 1,933 Climbing FlightAware ADS-B
Mon 06:43:47 AM 46.7870 5.5340 307° West 448 516 21,800 1,765 Climbing FlightAware ADS-B
Mon 06:44:27 AM 46.8470 5.4430 314° West 459 528 23,000 1,650 Climbing FlightAware ADS-B
Mon 06:45:07 AM 46.9050 5.3590 315° West 468 539 24,000 1,552 Climbing FlightAware ADS-B
Mon 06:45:53 AM 46.9828 5.2463 315° West 25,300 1,579 Climbing FlightAware ADS-B
Mon 06:46:23 AM 47.0308 5.1772 316° Northwest 481 554 26,000 1,429 Climbing FlightAware ADS-B
Mon 06:46:56 AM 47.0827 5.1023 316° Northwest 491 565 26,800 1,660 Climbing FlightAware ADS-B
Mon 06:47:57 AM 47.1790 4.9620 315° West 492 566 28,600 1,842 Climbing FlightAware ADS-B
Mon 06:48:37 AM 47.2440 4.8680 316° Northwest 487 560 29,900 2,047 Climbing FlightAware ADS-B
Mon 06:49:22 AM 47.3130 4.7670 315° West 476 548 31,500 1,575 Climbing FlightAware ADS-B
Mon 06:49:57 AM 47.3680 4.6860 315° West 470 541 32,000 353 Climbing FlightAware ADS-B
Mon 06:50:47 AM 47.4420 4.5760 315° West 465 535 32,000  Level FlightAware ADS-B
Mon 06:51:27 AM 47.5040 4.4840 315° West 467 537 32,000  Level FlightAware ADS-B
Mon 06:52:12 AM 47.5760 4.3780 315° West 470 541 32,000  Level FlightAware ADS-B
Mon 06:52:52 AM 47.6350 4.2880 314° West 472 543 32,000  Level FlightAware ADS-B
Mon 06:53:27 AM 47.6760 4.2100 308° West 471 542 32,000  Level FlightAware ADS-B
Mon 06:54:17 AM 47.7430 4.0670 305° West 471 542 32,000  Level FlightAware ADS-B
Mon 06:54:54 AM 47.7918 3.9598 304° West 472 543 32,000  Level FlightAware ADS-B
Mon 06:55:30 AM 47.8339 3.8659 304° West 468 539 32,000  Level FlightAware ADS-B
Mon 06:56:00 AM 47.8698 3.7845 303° West 466 536 32,000  Level FlightAware ADS-B
Mon 06:56:35 AM 47.9114 3.6908 304° West 466 536 32,000  Level FlightAware ADS-B
Mon 06:57:14 AM 47.9621 3.5897 307° West 471 542 32,000  Level FlightAware ADS-B
Mon 06:57:30 AM 47.9894 3.5585 323° Northwest 473 544 32,000  Level FlightAware ADS-B
Mon 06:57:53 AM 48.0336 3.5262 334° Northwest 476 548 32,000  Level FlightAware ADS-B
Mon 06:58:25 AM 48.0989 3.4848 337° Northwest 478 550 32,000  Level FlightAware ADS-B
Mon 06:58:56 AM 48.1631 3.4455 338° Northwest 480 552 32,000  Level FlightAware ADS-B
Mon 06:59:52 AM 48.2730 3.3780 338° Northwest 485 558 32,000  Level FlightAware ADS-B
Mon 07:00:32 AM 48.3570 3.3260 338° Northwest 488 562 32,000  Level FlightAware ADS-B
Mon 07:01:17 AM 48.4520 3.2670 338° Northwest 488 562 32,000  Level FlightAware ADS-B
Mon 07:01:47 AM 48.5178 3.2245 337° Northwest 490 564 32,000  Level FlightAware ADS-B
Mon 07:02:18 AM 48.5838 3.1836 338° Northwest 491 565 32,000  Level FlightAware ADS-B
Mon 07:02:49 AM 48.6480 3.1439 338° Northwest 491 565 32,000  Level FlightAware ADS-B
Mon 07:03:21 AM 48.7140 3.1027 338° Northwest 491 565 32,000  Level FlightAware ADS-B
Mon 07:03:56 AM 48.7877 3.0569 338° Northwest 490 564 32,000  Level FlightAware ADS-B
Mon 07:04:26 AM 48.8510 3.0170 337° Northwest 490 564 32,000  Level FlightAware ADS-B
Mon 07:04:57 AM 48.9156 2.9763 338° Northwest 487 560 32,000 95 Level FlightAware ADS-B
Mon 07:05:29 AM 48.9822 2.9341 337° Northwest 486 559 32,100 469 Climbing FlightAware ADS-B
Mon 07:06:01 AM 49.0473 2.8927 337° Northwest 476 548 32,500 706 Climbing FlightAware ADS-B
Mon 07:06:37 AM 49.1191 2.8471 337° Northwest 472 543 32,900 716 Climbing FlightAware ADS-B
Mon 07:07:08 AM 49.1819 2.8071 337° Northwest 468 539 33,300 696 Climbing FlightAware ADS-B
Mon 07:07:46 AM 49.2572 2.7588 337° Northwest 469 540 33,700 -1,053 Climbing FlightAware ADS-B
Mon 07:08:05 AM 49.2955 2.7360 337° Northwest 1 1 32,300 450 Descending FlightAware UK
Mon 07:08:26 AM 49.3389 2.7063 337° Northwest 477 549 34,000 1,925 Climbing FlightAware ADS-B
Mon 07:08:58 AM 49.4035 2.6647 337° Northwest 476 548 34,000 -1,765 Level FlightAware ADS-B
Mon 07:09:17 AM 49.4411 2.6400 337° Northwest 1 1 32,500  Descending FlightAware UK
Mon 07:09:36 AM 49.4796 2.6156 337° Northwest 472 543 34,000  Climbing FlightAware ADS-B
Mon 07:09:59 AM 49.5260 2.5859 337° Northwest 464 534 32,500  Descending FlightAware UK
Mon 07:10:09 AM 49.5454 2.5731 337° Northwest 470 541 34,000  Climbing FlightAware ADS-B
Mon 07:10:29 AM 49.5861 2.5471 337° Northwest 464 534 32,500  Descending FlightAware UK
Mon 07:10:41 AM 49.6098 2.5312 337° Northwest 469 540 34,000 1,875 Climbing FlightAware ADS-B
Mon 07:11:17 AM 49.6811 2.4846 337° Northwest 466 536 34,000 -1,667 Level FlightAware ADS-B
Mon 07:11:35 AM 49.7173 2.4615 337° Northwest 460 529 32,500  Descending FlightAware UK
Mon 07:11:49 AM 49.7438 2.4436 337° Northwest 465 535 34,000  Climbing FlightAware ADS-B
Mon 07:12:05 AM 49.7764 2.4229 337° Northwest 458 527 32,500  Descending FlightAware UK
Mon 07:12:20 AM 49.8063 2.4026 337° Northwest 463 533 34,000 1,800 Climbing FlightAware ADS-B
Mon 07:12:55 AM 49.8751 2.3574 337° Northwest 463 533 34,000 -1,714 Level FlightAware ADS-B
Mon 07:13:16 AM 49.9172 2.3296 337° Northwest 458 527 32,400  Descending FlightAware UK
Mon 07:13:26 AM 49.9361 2.3172 337° Northwest 462 532 34,000  Climbing FlightAware ADS-B
Mon 07:13:47 AM 49.9764 2.2905 337° Northwest 458 527 32,400  Descending FlightAware UK
Mon 07:14:20 AM 50.0420 2.2472 337° Northwest 462 532 34,000 125 Climbing FlightAware ADS-B
Mon 07:14:35 AM 50.0704 2.2283 337° Northwest 460 529 32,500  Descending FlightAware UK
Mon 07:14:52 AM 50.1033 2.2064 337° Northwest 461 531 34,000 2,647 Climbing FlightAware ADS-B
Mon 07:15:09 AM 50.1378 2.1833 337° Northwest 461 531 34,000  Level FlightAware ADS-B
Mon 07:15:22 AM 50.1634 2.1662 337° Northwest 461 531 34,000 -2,813 Level FlightAware ADS-B
Mon 07:15:41 AM 50.1997 2.1419 337° Northwest 454 522 32,500  Descending FlightAware UK
Mon 07:15:57 AM 50.2240 2.1260 337° Northwest 462 532 34,000 3,103 Climbing FlightAware ADS-B
Mon 07:16:10 AM 50.2558 2.1045 337° Northwest 463 533 34,000 -3,097 Level FlightAware ADS-B
Mon 07:16:28 AM 50.2929 2.0777 337° Northwest 456 525 32,400  Descending FlightAware UK
Mon 07:16:42 AM 50.3120 2.0520 337° Northwest 465 535 34,000 2,043 Climbing FlightAware ADS-B
Mon 07:17:15 AM 50.3597 1.9619 310° West 465 535 34,000  Level FlightAware ADS-B
Mon 07:18:07 AM 50.4120 1.8190 300° West 470 541 34,000  Level FlightAware ADS-B
Mon 07:18:26 AM 50.4360 1.7514 299° West 465 535 34,000  Level FlightAware ADS-B
Mon 07:18:31 AM 50.4408 1.7378 299° West 470 541 34,000  Level FlightAware ADS-B
Mon 07:19:11 AM 50.4824 1.6200 299° West 470 541 34,000  Level FlightAware ADS-B
Mon 07:20:02 AM 50.5363 1.4678 299° West 34,000  Level FlightAware ADS-B
Mon 07:20:30 AM 50.5670 1.3861 301° West 465 535 34,000  Level FlightAware ADS-B
Mon 07:21:05 AM 50.6047 1.2865 301° West 464 534 34,000 -1,846 Level FlightAware ADS-B
Mon 07:21:22 AM 50.6240 1.2345 301° West 468 539 32,400  Descending FlightAware UK
Mon 07:21:35 AM 50.6380 1.1972 301° West 462 532 34,000  Climbing FlightAware ADS-B
Mon 07:21:52 AM 50.6564 1.1478 301° West 466 536 32,400  Descending FlightAware UK
Mon 07:22:21 AM 50.6871 1.0643 301° West 459 528 34,000  Climbing FlightAware ADS-B
Mon 07:22:46 AM 50.7136 0.9923 301° West 464 534 32,400  Descending FlightAware UK
Mon 07:22:52 AM 50.7194 0.9760 301° West 457 526 34,000  Climbing FlightAware ADS-B
Mon 07:23:10 AM 50.7389 0.9232 301° West 462 532 32,400  Descending FlightAware UK
Mon 07:23:24 AM 50.7532 0.8839 301° West 456 525 34,000  Climbing FlightAware ADS-B
Mon 07:23:46 AM 50.7764 0.8202 301° West 460 529 32,400  Descending FlightAware UK
Mon 07:23:54 AM 50.7849 0.7970 301° West 456 525 34,000 2,526 Climbing FlightAware ADS-B
Mon 07:24:24 AM 50.8163 0.7109 300° West 454 522 34,000 -1,957 Level FlightAware ADS-B
Mon 07:24:40 AM 50.8328 0.6650 300° West 460 529 32,500  Descending FlightAware UK
Mon 07:24:56 AM 50.8498 0.6181 300° West 454 522 34,000  Climbing FlightAware ADS-B
Mon 07:25:16 AM 50.8701 0.5616 300° West 456 525 32,500  Descending FlightAware UK
Mon 07:25:28 AM 50.8824 0.5280 300° West 454 522 34,000 2,500 Climbing FlightAware ADS-B
Mon 07:25:52 AM 50.9069 0.4590 299° West 453 521 34,000  Level FlightAware ADS-B
Mon 07:26:06 AM 50.9182 0.4155 292° West 454 522 34,000  Level FlightAware ADS-B
Mon 07:26:14 AM 50.9230 0.3900 287° West 455 524 34,000 -3,333 Level FlightAware ADS-B
Mon 07:26:33 AM 50.9346 0.3266 287° West 458 527 32,500  Descending FlightAware UK
Mon 07:26:44 AM 50.9410 0.2930 287° West 454 522 34,000  Climbing FlightAware ADS-B
Mon 07:27:03 AM 50.9527 0.2313 287° West 458 527 32,500  Descending FlightAware UK
Mon 07:27:15 AM 50.9594 0.1952 287° West 455 524 34,000 2,093 Climbing FlightAware ADS-B
Mon 07:27:46 AM 50.9777 0.0975 287° West 454 522 34,000 -1,875 Level FlightAware ADS-B
Mon 07:28:03 AM 50.9884 0.0406 287° West 462 532 32,500  Descending FlightAware UK
Mon 07:28:17 AM 50.9965 -0.0031 287° West 454 522 34,000 1,957 Climbing FlightAware ADS-B
Mon 07:28:49 AM 51.0156 -0.1028 287° West 453 521 34,000  Level FlightAware ADS-B
Mon 07:29:20 AM 51.0345 -0.2008 287° West 452 520 34,000  Level FlightAware ADS-B
Mon 07:29:32 AM 51.0433 -0.2389 290° West 452 520 34,000  Level FlightAware ADS-B
Mon 07:30:03 AM 51.0671 -0.3329 292° West 449 517 34,000  Level FlightAware ADS-B
Mon 07:30:33 AM 51.0904 -0.4260 292° West 448 516 34,000  Level FlightAware ADS-B
Mon 07:31:06 AM 51.1157 -0.5254 292° West 447 514 34,000  Level FlightAware ADS-B
Mon 07:31:38 AM 51.1401 -0.6203 292° West 446 513 34,000  Level FlightAware ADS-B
Mon 07:32:09 AM 51.1647 -0.7163 292° West 445 512 34,000  Level FlightAware ADS-B
Mon 07:32:39 AM 51.1881 -0.8080 292° West 445 512 34,000  Level FlightAware ADS-B
Mon 07:33:10 AM 51.2114 -0.8994 292° West 445 512 34,000  Level FlightAware ADS-B
Mon 07:33:40 AM 51.2344 -0.9906 292° West 445 512 34,000 -1,731 Level FlightAware ADS-B
Mon 07:34:02 AM 51.2521 -1.0607 292° West 460 529 32,500  Descending FlightAware UK
Mon 07:34:10 AM 51.2577 -1.0829 292° West 445 512 34,000 2,250 Climbing FlightAware ADS-B
Mon 07:34:42 AM 51.2818 -1.1789 292° West 445 512 34,000  Level FlightAware ADS-B
Mon 07:35:12 AM 51.3047 -1.2712 292° West 444 511 34,000  Level FlightAware ADS-B
Mon 07:35:42 AM 51.3274 -1.3636 292° West 444 511 34,000 -1,800 Level FlightAware ADS-B
Mon 07:36:02 AM 51.3426 -1.4247 292° West 464 534 32,500  Descending FlightAware UK
Mon 07:36:14 AM 51.3510 -1.4584 292° West 444 511 34,000 2,143 Climbing FlightAware ADS-B
Mon 07:36:44 AM 51.3735 -1.5499 292° West 443 510 34,000  Level FlightAware ADS-B
Mon 07:37:15 AM 51.3970 -1.6459 291° West 442 509 34,000  Level FlightAware ADS-B
Mon 07:37:46 AM 51.4195 -1.7382 291° West 441 507 34,000  Level FlightAware ADS-B
Mon 07:38:16 AM 51.4421 -1.8311 291° West 441 507 34,000 -1,957 Level FlightAware ADS-B
Mon 07:38:32 AM 51.4539 -1.8796 291° West 466 536 32,500  Descending FlightAware UK
Mon 07:38:47 AM 51.4647 -1.9244 291° West 439 505 34,000  Climbing FlightAware ADS-B
Mon 07:39:02 AM 51.4757 -1.9699 291° West 466 536 32,500  Descending FlightAware UK
Mon 07:39:18 AM 51.4875 -2.0192 291° West 438 504 34,000 1,915 Climbing FlightAware ADS-B
Mon 07:39:49 AM 51.5098 -2.1123 291° West 438 504 34,000 -1,800 Level FlightAware ADS-B
Mon 07:40:08 AM 51.5236 -2.1695 291° West 462 532 32,500  Descending FlightAware UK
Mon 07:40:20 AM 51.5320 -2.2053 291° West 437 503 34,000 2,093 Climbing FlightAware ADS-B
Mon 07:40:51 AM 51.5541 -2.2983 291° West 436 502 34,000  Level FlightAware ADS-B
Mon 07:41:22 AM 51.5763 -2.3923 291° West 436 502 34,000 -1,846 Level FlightAware ADS-B
Mon 07:41:43 AM 51.5920 -2.4586 291° West 458 527 32,400  Descending FlightAware UK
Mon 07:41:53 AM 51.5985 -2.4862 291° West 436 502 34,000 2,400 Climbing FlightAware ADS-B
Mon 07:42:23 AM 51.6200 -2.5782 291° West 436 502 34,000 -1,800 Level FlightAware ADS-B
Mon 07:42:43 AM 51.6344 -2.6396 291° West 458 527 32,500  Descending FlightAware UK
Mon 07:42:53 AM 51.6414 -2.6695 291° West 437 503 34,000 2,195 Climbing FlightAware ADS-B
Mon 07:43:24 AM 51.6632 -2.7629 291° West 437 503 34,000 -1,607 Level FlightAware ADS-B
Mon 07:43:49 AM 51.6808 -2.8392 291° West 458 527 32,500  Descending FlightAware UK
Mon 07:44:03 AM 51.6904 -2.8812 291° West 438 504 34,000  Climbing FlightAware ADS-B
Mon 07:44:19 AM 51.7018 -2.9305 291° West 460 529 32,500 -2,647 Descending FlightAware UK
Mon 07:44:37 AM 51.7145 -2.9854 290° West 460 529 32,500 3,913 Level FlightAware UK
Mon 07:44:42 AM 51.7160 -2.9900 290° West 437 503 34,000 4,500 Climbing FlightAware ADS-B
Mon 07:44:57 AM 51.7282 -3.0451 290° West 437 503 34,000 -2,432 Level FlightAware ADS-B
Mon 07:45:19 AM 51.7437 -3.1128 290° West 460 529 32,500  Descending FlightAware UK
Mon 07:45:29 AM 51.7504 -3.1423 290° West 437 503 34,000  Climbing FlightAware ADS-B
Mon 07:45:49 AM 51.7648 -3.2043 290° West 462 532 32,500  Descending FlightAware UK
Mon 07:45:59 AM 51.7707 -3.2342 290° West 436 502 34,000  Climbing FlightAware ADS-B
Mon 07:46:19 AM 51.7817 -3.2971 290° West 462 532 32,500 -2,045 Descending FlightAware UK
Mon 07:46:43 AM 51.7921 -3.3730 283° West 460 529 32,500 3,214 Level FlightAware UK
Mon 07:46:47 AM 51.7920 -3.3720 283° West 434 499 34,000  Climbing FlightAware ADS-B
Mon 07:47:19 AM 51.8026 -3.4883 283° West 460 529 32,500  Descending FlightAware UK
Mon 07:47:27 AM 51.8040 -3.5060 283° West 434 499 34,000  Climbing FlightAware ADS-B
Mon 07:47:43 AM 51.8088 -3.5653 283° West 462 532 32,500 -2,250 Descending FlightAware UK
Mon 07:48:07 AM 51.8151 -3.6423 278° West 462 532 32,500 3,103 Level FlightAware UK
Mon 07:48:12 AM 51.8160 -3.6540 278° West 434 499 34,000  Climbing FlightAware ADS-B
Mon 07:48:31 AM 51.8214 -3.7194 278° West 462 532 32,500  Descending FlightAware UK
Mon 07:48:52 AM 51.8260 -3.7800 278° West 435 501 34,000  Climbing FlightAware ADS-B
Mon 07:49:13 AM 51.8319 -3.8544 278° West 462 532 32,500 -2,308 Descending FlightAware UK
Mon 07:49:31 AM 51.8364 -3.9124 277° West 462 532 32,500  Level FlightAware UK
Mon 07:49:54 AM 51.8423 -3.9889 277° West 462 532 32,500  Level FlightAware UK
Mon 07:50:18 AM 51.8482 -4.0661 277° West 462 532 32,500  Level FlightAware UK
Mon 07:51:00 AM 51.8586 -4.2009 277° West 462 532 32,500  Level FlightAware UK
Mon 07:51:18 AM 51.8633 -4.2586 277° West 462 532 32,500  Level FlightAware UK
Mon 07:52:30 AM 51.8887 -4.4876 280° West 460 529 32,500  Level FlightAware UK
Mon 07:52:48 AM 51.9020 -4.5425 292° West 462 532 32,500  Level FlightAware UK
Mon 07:53:06 AM 51.9185 -4.5948 297° West 460 529 32,500  Level FlightAware UK
Mon 07:53:30 AM 51.9400 -4.6657 296° West 462 532 32,500  Level FlightAware UK
Mon 07:53:48 AM 51.9562 -4.7185 296° West 462 532 32,500  Level FlightAware UK
Mon 07:54:12 AM 51.9778 -4.7889 297° West 462 532 32,500  Level FlightAware UK
Mon 07:54:30 AM 51.9939 -4.8411 297° West 462 532 32,500  Level FlightAware UK
Mon 07:54:48 AM 52.0102 -4.8939 297° West 462 532 32,500 3,333 Level FlightAware UK
Mon 07:54:57 AM 52.0160 -4.9110 297° West 438 504 34,000  Climbing FlightAware ADS-B
Mon 07:55:12 AM 52.0321 -4.9644 297° West 462 532 32,500 -2,727 Descending FlightAware UK
Mon 07:55:30 AM 52.0483 -5.0173 297° West 462 532 32,500 3,600 Level FlightAware UK
Mon 07:55:37 AM 52.0520 -5.0300 297° West 438 504 34,000  Climbing FlightAware ADS-B
Mon 07:55:54 AM 52.0697 -5.0880 297° West 462 532 32,500 -2,571 Descending FlightAware UK
Mon 07:56:12 AM 52.0854 -5.1414 296° West 462 532 32,500 3,214 Level FlightAware UK
Mon 07:56:22 AM 52.0920 -5.1660 296° West 438 504 34,000  Climbing FlightAware ADS-B
Mon 07:56:42 AM 52.1111 -5.2307 296° West 462 532 32,500 -2,368 Descending FlightAware UK
Mon 07:57:00 AM 52.1269 -5.2839 296° West 462 532 32,500 4,500 Level FlightAware UK
Mon 07:57:02 AM 52.1280 -5.2840 296° West 441 507 34,000  Climbing FlightAware ADS-B
Mon 07:57:18 AM 52.1511 -5.3296 296° West 462 532 32,500 -2,647 Descending FlightAware UK
Mon 07:57:36 AM 52.1739 -5.3765 308° West 462 532 32,500 3,750 Level FlightAware UK
Mon 07:57:42 AM 52.1790 -5.3870 308° West 441 507 34,000  Climbing FlightAware ADS-B
Mon 07:58:00 AM 52.2042 -5.4391 308° West 460 529 32,500 -2,500 Descending FlightAware UK
Mon 07:58:18 AM 52.2261 -5.4868 307° West 460 529 32,500 3,333 Level FlightAware UK
Mon 07:58:27 AM 52.2330 -5.5040 307° West 441 507 34,000  Climbing FlightAware ADS-B
Mon 07:58:48 AM 52.2616 -5.5678 307° West 462 532 32,500 -2,308 Descending FlightAware UK
Mon 07:59:06 AM 52.2828 -5.6165 305° West 460 529 32,500 3,750 Level FlightAware UK
Mon 07:59:12 AM 52.2880 -5.6280 305° West 440 506 34,000  Climbing FlightAware ADS-B
Mon 07:59:30 AM 52.3110 -5.6816 305° West 462 532 32,500 -2,500 Descending FlightAware UK
Mon 07:59:48 AM 52.3339 -5.7285 309° West 460 529 32,500 4,091 Level FlightAware UK
Mon 07:59:52 AM 52.3350 -5.7310 309° West 441 507 34,000  Climbing FlightAware ADS-B
Mon 08:00:12 AM 52.3639 -5.7917 309° West 460 529 32,500 -2,368 Descending FlightAware UK
Mon 08:00:30 AM 52.3865 -5.8394 308° West 460 529 32,500 3,600 Level FlightAware UK
Mon 08:00:37 AM 52.3920 -5.8520 308° West 442 509 34,000  Climbing FlightAware ADS-B
Mon 08:00:54 AM 52.4163 -5.9029 308° West 460 529 32,500 -2,400 Descending FlightAware UK
Mon 08:01:12 AM 52.4388 -5.9504 308° West 460 529 32,600 4,174 Climbing FlightAware UK
Mon 08:01:17 AM 52.4410 -5.9550 308° West 441 507 34,100 500 Climbing FlightAware ADS-B
Mon 08:01:36 AM 52.4688 -6.0136 308° West 456 525 32,800 -1,946 Descending FlightAware UK
Mon 08:01:54 AM 52.4908 -6.0604 308° West 456 525 32,900 333 Climbing FlightAware UK
Mon 08:02:12 AM 52.5129 -6.1077 308° West 454 522 33,000 500 Climbing FlightAware UK
Mon 08:02:30 AM 52.5353 -6.1545 308° West 454 522 33,200 500 Climbing FlightAware UK
Mon 08:02:48 AM 52.5576 -6.2017 308° West 456 525 33,300 500 Climbing FlightAware UK
Mon 08:03:06 AM 52.5797 -6.2491 307° West 456 525 33,500 667 Climbing FlightAware UK
Mon 08:03:24 AM 52.6017 -6.2969 307° West 458 527 33,700 500 Climbing FlightAware UK
Mon 08:03:42 AM 52.6238 -6.3447 307° West 458 527 33,800 500 Climbing FlightAware UK
Mon 08:04:00 AM 52.6460 -6.3926 307° West 458 527 34,000 4,080 Climbing FlightAware UK
Mon 08:04:07 AM 52.6500 -6.4000 307° West 441 507 35,500 250 Climbing FlightAware ADS-B
Mon 08:04:24 AM 52.6756 -6.4565 307° West 458 527 34,100 -2,057 Descending FlightAware UK
Mon 08:04:42 AM 52.6978 -6.5045 307° West 458 527 34,300 4,435 Climbing FlightAware UK
Mon 08:04:47 AM 52.7010 -6.5110 307° West 439 505 35,800 250 Climbing FlightAware ADS-B
Mon 08:05:06 AM 52.7270 -6.5687 307° West 458 527 34,400 -2,270 Descending FlightAware UK
Mon 08:05:24 AM 52.7490 -6.6169 307° West 458 527 34,400 4,571 Level FlightAware UK
Mon 08:05:27 AM 52.7490 -6.6180 307° West 441 507 36,000  Climbing FlightAware ADS-B
Mon 08:05:42 AM 52.7709 -6.6653 307° West 460 529 34,400 -2,909 Descending FlightAware UK
Mon 08:06:00 AM 52.7929 -6.7138 307° West 462 532 34,400 3,200 Level FlightAware UK
Mon 08:06:12 AM 52.8060 -6.7420 307° West 444 511 36,000  Climbing FlightAware ADS-B
Mon 08:06:30 AM 52.8298 -6.7950 307° West 462 532 34,400 -2,667 Descending FlightAware UK
Mon 08:06:48 AM 52.8519 -6.8437 307° West 460 529 34,400 4,364 Level FlightAware UK
Mon 08:06:52 AM 52.8550 -6.8510 307° West 443 510 36,000  Climbing FlightAware ADS-B
Mon 08:07:12 AM 52.8813 -6.9089 307° West 458 527 34,400 -2,526 Descending FlightAware UK
Mon 08:07:30 AM 52.9033 -6.9578 307° West 458 527 34,400 4,800 Level FlightAware UK
Mon 08:07:32 AM 52.9030 -6.9570 307° West 443 510 36,000  Climbing FlightAware ADS-B
Mon 08:07:48 AM 52.9253 -7.0067 307° West 458 527 34,400 -2,824 Descending FlightAware UK
Mon 08:08:06 AM 52.9473 -7.0558 307° West 460 529 34,400 3,310 Level FlightAware UK
Mon 08:08:17 AM 52.9580 -7.0790 307° West 444 511 36,000  Climbing FlightAware ADS-B
Mon 08:08:36 AM 52.9840 -7.1377 307° West 460 529 34,400 -2,595 Descending FlightAware UK
Mon 08:08:54 AM 53.0060 -7.1869 307° West 458 527 34,400 4,571 Level FlightAware UK
Mon 08:08:57 AM 53.0070 -7.1880 307° West 445 512 36,000  Climbing FlightAware ADS-B
Mon 08:09:12 AM 53.0280 -7.2362 307° West 458 527 34,400 -2,909 Descending FlightAware UK
Mon 08:09:30 AM 53.0498 -7.2849 307° West 458 527 34,400 3,840 Level FlightAware UK
Mon 08:09:37 AM 53.0550 -7.2960 307° West 444 511 36,000  Climbing FlightAware ADS-B
Mon 08:09:54 AM 53.0790 -7.3507 307° West 456 525 34,400 -2,743 Descending FlightAware UK
Mon 08:10:12 AM 53.1011 -7.4000 307° West 458 527 34,400 3,429 Level FlightAware UK
Mon 08:10:22 AM 53.1110 -7.4240 307° West 445 512 36,000  Climbing FlightAware ADS-B
Mon 08:10:42 AM 53.1374 -7.4827 307° West 458 527 34,400 -2,526 Descending FlightAware UK
Mon 08:11:00 AM 53.1593 -7.5324 306° West 458 527 34,400 4,800 Level FlightAware UK
Mon 08:11:02 AM 53.1560 -7.5250 306° West 445 512 36,000  Climbing FlightAware ADS-B
Mon 08:11:18 AM 53.1811 -7.5821 306° West 458 527 34,400 -2,824 Descending FlightAware UK
Mon 08:11:36 AM 53.2030 -7.6318 306° West 458 527 34,400 3,310 Level FlightAware UK
Mon 08:11:47 AM 53.2140 -7.6560 306° West 445 512 36,000  Climbing FlightAware ADS-B
Mon 08:12:06 AM 53.2394 -7.7151 306° West 460 529 34,400 -2,432 Descending FlightAware UK
Mon 08:12:24 AM 53.2612 -7.7650 306° West 460 529 34,500 4,571 Climbing FlightAware UK
Mon 08:12:27 AM 53.2620 -7.7670 306° West 445 512 36,000  Climbing FlightAware ADS-B
Mon 08:12:42 AM 53.2830 -7.8149 306° West 462 532 34,500 -2,727 Descending FlightAware UK
Mon 08:13:00 AM 53.3048 -7.8649 306° West 460 529 34,500 3,600 Level FlightAware UK
Mon 08:13:07 AM 53.3090 -7.8750 306° West 446 513 36,000  Climbing FlightAware ADS-B
Mon 08:13:24 AM 53.3336 -7.9317 306° West 462 532 34,500 -2,571 Descending FlightAware UK
Mon 08:13:42 AM 53.3553 -7.9818 306° West 460 529 34,500 3,913 Level FlightAware UK
Mon 08:13:47 AM 53.3550 -7.9810 306° West 445 512 36,000  Climbing FlightAware ADS-B
Mon 08:14:06 AM 53.3843 -8.0486 306° West 462 532 34,500 -2,432 Descending FlightAware UK
Mon 08:14:24 AM 53.4059 -8.0988 306° West 460 529 34,500 3,462 Level FlightAware UK
Mon 08:14:32 AM 53.4120 -8.1140 306° West 444 511 36,000  Climbing FlightAware ADS-B
Mon 08:14:48 AM 53.4346 -8.1658 306° West 458 527 34,500 -2,647 Descending FlightAware UK
Mon 08:15:06 AM 53.4562 -8.2160 306° West 458 527 34,500  Level FlightAware UK
Mon 08:15:24 AM 53.4778 -8.2664 306° West 458 527 34,500  Level FlightAware UK
Mon 08:15:42 AM 53.4993 -8.3166 306° West 458 527 34,500 2,727 Level FlightAware UK
Mon 08:15:57 AM 53.5130 -8.3500 306° West 444 511 36,000  Climbing FlightAware ADS-B
Mon 08:16:12 AM 53.5351 -8.4007 306° West 460 529 34,500 -2,727 Descending FlightAware UK
Mon 08:16:30 AM 53.5566 -8.4511 306° West 460 529 34,500 3,600 Level FlightAware UK
Mon 08:16:37 AM 53.5610 -8.4630 306° West 445 512 36,000  Climbing FlightAware ADS-B
Mon 08:16:54 AM 53.5849 -8.5181 306° West 460 529 34,500 -2,571 Descending FlightAware UK
Mon 08:17:12 AM 53.6063 -8.5689 305° West 460 529 34,500  Level FlightAware UK
Mon 08:17:30 AM 53.6277 -8.6197 305° West 460 529 34,500  Level FlightAware UK
Mon 08:17:48 AM 53.6491 -8.6705 305° West 460 529 34,500  Level FlightAware UK
Mon 08:18:06 AM 53.6706 -8.7214 305° West 462 532 34,500  Level FlightAware UK
Mon 08:18:24 AM 53.6922 -8.7722 306° West 460 529 34,500  Level FlightAware UK
Mon 08:18:42 AM 53.7136 -8.8230 305° West 462 532 34,500 3,913 Level FlightAware UK
Mon 08:18:47 AM 53.7120 -8.8200 305° West 445 512 36,000  Climbing FlightAware ADS-B
Mon 08:19:06 AM 53.7420 -8.8912 305° West 460 529 34,500 -2,432 Descending FlightAware UK
Mon 08:19:24 AM 53.7632 -8.9424 305° West 460 529 34,500 4,286 Level FlightAware UK
Mon 08:19:27 AM 53.7600 -8.9360 305° West 445 512 36,000  Climbing FlightAware ADS-B
Mon 08:19:42 AM 53.7844 -8.9937 305° West 458 527 34,500  Descending FlightAware UK
Mon 08:20:07 AM 53.8060 -9.0470 305° West 445 512 36,000 1,286 Climbing FlightAware ADS-B
Mon 08:20:52 AM 53.8600 -9.1770 305° West 445 512 36,000  Level FlightAware ADS-B
Mon 08:21:32 AM 53.9100 -9.2980 305° West 439 505 36,000  Level FlightAware ADS-B
Mon 08:22:52 AM 53.9990 -9.5170 305° West 440 506 36,000  Level FlightAware ADS-B
Mon 08:24:07 AM 54.0870 -9.7340 305° West 439 505 36,000  Level FlightAware ADS-B
Mon 08:24:47 AM 54.1360 -9.8550 305° West 441 507 36,000  Level FlightAware ADS-B
Mon 08:25:32 AM 54.1890 -9.9870 304° West 441 507 36,000  Level FlightAware ADS-B
Mon 08:27:07 AM 54.2970 -10.2590 304° West 442 509 36,000  Level FlightAware ADS-B
Mon 08:27:52 AM 54.3500 -10.3930 304° West 442 509 36,000  Level FlightAware ADS-B
Mon 08:28:32 AM 54.3960 -10.5100 304° West 442 509 36,000  Level FlightAware ADS-B
Mon 08:30:32 AM 54.5290 -10.8550 304° West 446 513 36,000  Level FlightAware ADS-B
Mon 08:32:32 AM 54.6680 -11.2180 304° West 440 506 36,000  Level FlightAware ADS-B
Mon 08:34:37 AM 54.8040 -11.5770 303° West 430 495 36,000  Level FlightAware ADS-B
Mon 08:35:17 AM 54.8490 -11.6980 303° West 429 494 36,000  Level FlightAware ADS-B
Mon 08:36:02 AM 54.8980 -11.8300 303° West 428 493 36,000  Level FlightAware ADS-B
Mon 08:38:00 AM 54.9481 -12.2206 283° West  Level Estimated
Mon 08:39:00 AM 54.9730 -12.4195 282° West  Level Estimated
Mon 08:39:17 AM 55.1060 -12.3960 282° West 425 489 36,000  Level FlightAware ADS-B
Mon 08:40:02 AM 55.1550 -12.5320 302° West 425 489 36,000  Level FlightAware ADS-B
Mon 08:41:07 AM 55.2160 -12.7020 302° West 424 488 36,000  Level FlightAware ADS-B
Mon 08:41:52 AM 55.2650 -12.8390 302° West 423 487 36,000  Level FlightAware ADS-B
Mon 08:42:27 AM 55.2980 -12.9340 301° West 424 488 36,000  Level FlightAware ADS-B
Mon 08:43:07 AM 55.3430 -13.0600 302° West 424 488 36,000  Level FlightAware ADS-B
Mon 08:43:52 AM 55.3840 -13.1810 301° West 424 488 36,000  Level FlightAware ADS-B
Mon 08:44:32 AM 55.4180 -13.2820 301° West 424 488 36,000  Level FlightAware ADS-B
Mon 08:45:22 AM 55.4610 -13.4070 301° West 424 488 36,000  Level FlightAware ADS-B
Mon 08:46:02 AM 55.4960 -13.5080 301° West 424 488 36,000  Level FlightAware ADS-B
Mon 08:46:42 AM 55.5300 -13.6090 301° West 424 488 36,000  Level FlightAware ADS-B
Mon 08:47:22 AM 55.5640 -13.7100 301° West 424 488 36,000  Level FlightAware ADS-B
Mon 08:48:02 AM 55.5990 -13.8120 301° West 424 488 36,000  Level FlightAware ADS-B
Mon 08:48:52 AM 55.6420 -13.9380 301° West 424 488 36,000  Level FlightAware ADS-B
Mon 08:49:32 AM 55.6760 -14.0390 301° West 424 488 36,000  Level FlightAware ADS-B
Mon 08:50:12 AM 55.7100 -14.1410 301° West 424 488 36,000  Level FlightAware ADS-B
Mon 08:50:52 AM 55.7450 -14.2420 302° West 424 488 36,000  Level FlightAware ADS-B
Mon 08:51:32 AM 55.7790 -14.3440 301° West 424 488 36,000  Level FlightAware ADS-B
Mon 08:52:22 AM 55.8220 -14.4710 301° West 424 488 36,000  Level FlightAware ADS-B
Mon 08:53:02 AM 55.8560 -14.5730 301° West 424 488 36,000  Level FlightAware ADS-B
Mon 08:55:00 AM 55.8940 -14.9773 280° West  Level Estimated
Mon 08:56:00 AM 55.9128 -15.1831 279° West  Level Estimated
Mon 08:57:00 AM 55.9312 -15.3892 279° West  Level Estimated
Mon 08:58:00 AM 55.9493 -15.5955 279° West  Level Estimated
Mon 08:59:00 AM 55.9672 -15.8024 279° West  Level Estimated
Mon 09:00:00 AM 55.9846 -16.0095 279° West  Level Estimated
Mon 09:01:00 AM 56.0017 -16.2167 278° West  Level Estimated
Mon 09:02:00 AM 56.0185 -16.4242 278° West  Level Estimated
Mon 09:03:00 AM 56.0349 -16.6318 278° West  Level Estimated
Mon 09:04:00 AM 56.0510 -16.8396 278° West  Level Estimated
Mon 09:05:00 AM 56.0667 -17.0476 278° West  Level Estimated
Mon 09:06:00 AM 56.0821 -17.2558 278° West  Level Estimated
Mon 09:07:00 AM 56.0971 -17.4641 277° West  Level Estimated
Mon 09:08:00 AM 56.1117 -17.6726 277° West  Level Estimated
Mon 09:09:00 AM 56.1260 -17.8812 277° West  Level Estimated
Mon 09:10:00 AM 56.1400 -18.0900 277° West  Level Estimated
Mon 09:11:00 AM 56.1536 -18.2989 277° West  Level Estimated
Mon 09:12:00 AM 56.1669 -18.5080 277° West  Level Estimated
Mon 09:13:00 AM 56.1798 -18.7172 276° West  Level Estimated
Mon 09:14:00 AM 56.1923 -18.9265 276° West  Level Estimated
Mon 09:15:00 AM 56.2045 -19.1360 276° West  Level Estimated
Mon 09:16:00 AM 56.2164 -19.3457 276° West  Level Estimated
Mon 09:17:00 AM 56.2279 -19.5554 276° West  Level Estimated
Mon 09:18:00 AM 56.2390 -19.7653 276° West  Level Estimated
Mon 09:19:00 AM 56.2498 -19.9753 275° West  Level Estimated
Mon 09:20:00 AM 56.2602 -20.1854 275° West  Level Estimated
Mon 09:21:00 AM 56.2703 -20.3957 275° West  Level Estimated
Mon 09:22:00 AM 56.2800 -20.6060 275° West  Level Estimated
Mon 09:22:00 AM 57.0000 -20.0000 285° West 418 481 36,000  Level ETMS Enhanced Traffic Management System
Mon 09:23:00 AM 56.2893 -20.8165 275° West  Level Estimated
Mon 09:24:00 AM 56.2983 -21.0261 274° West  Level Estimated
Mon 09:25:00 AM 56.3069 -21.2358 274° West  Level Estimated
Mon 09:26:00 AM 56.3151 -21.4456 274° West  Level Estimated
Mon 09:27:00 AM 56.3230 -21.6555 274° West  Level Estimated
Mon 09:28:00 AM 57.2255 -21.6605 283° West 418 481 36,000  Level FlightAware Transoceanic
Mon 09:29:00 AM 57.2521 -21.8694 283° West 418 481 36,000  Level FlightAware Transoceanic
Mon 09:30:00 AM 57.2784 -22.0787 283° West 418 481 36,000  Level FlightAware Transoceanic
Mon 09:31:00 AM 57.3043 -22.2882 283° West 418 481 36,000  Level FlightAware Transoceanic
Mon 09:32:00 AM 57.3299 -22.4981 283° West 418 481 36,000  Level FlightAware Transoceanic
Mon 09:33:00 AM 57.3552 -22.7082 282° West 418 481 36,000  Level FlightAware Transoceanic
Mon 09:34:00 AM 57.3801 -22.9186 282° West 418 481 36,000  Level FlightAware Transoceanic
Mon 09:35:00 AM 57.4046 -23.1293 282° West 418 481 36,000  Level FlightAware Transoceanic
Mon 09:36:00 AM 57.4288 -23.3403 282° West 418 481 36,000  Level FlightAware Transoceanic
Mon 09:37:00 AM 57.4526 -23.5516 282° West 418 481 36,000  Level FlightAware Transoceanic
Mon 09:38:00 AM 57.4761 -23.7631 282° West 418 481 36,000  Level FlightAware Transoceanic
Mon 09:39:00 AM 57.4992 -23.9750 281° West 418 481 36,000  Level FlightAware Transoceanic
Mon 09:40:00 AM 57.5220 -24.1870 281° West 418 481 36,000  Level FlightAware Transoceanic
Mon 09:41:00 AM 57.5444 -24.3994 281° West 418 481 36,000  Level FlightAware Transoceanic
Mon 09:42:00 AM 57.5665 -24.6120 281° West 418 481 36,000  Level FlightAware Transoceanic
Mon 09:43:00 AM 57.5882 -24.8248 281° West 418 481 36,000  Level FlightAware Transoceanic
Mon 09:44:00 AM 57.6095 -25.0379 280° West 418 481 36,000  Level FlightAware Transoceanic
Mon 09:45:00 AM 57.6305 -25.2513 280° West 418 481 36,000  Level FlightAware Transoceanic
Mon 09:46:00 AM 57.6511 -25.4649 280° West 418 481 36,000  Level FlightAware Transoceanic
Mon 09:47:00 AM 57.6714 -25.6787 280° West 418 481 36,000  Level FlightAware Transoceanic
Mon 09:48:00 AM 57.6913 -25.8928 280° West 418 481 36,000  Level FlightAware Transoceanic
Mon 09:49:00 AM 57.7108 -26.1071 280° West 418 481 36,000  Level FlightAware Transoceanic
Mon 09:50:00 AM 57.7300 -26.3216 279° West 418 481 36,000  Level FlightAware Transoceanic
Mon 09:51:00 AM 57.7488 -26.5364 279° West 418 481 36,000  Level FlightAware Transoceanic
Mon 09:52:00 AM 57.7673 -26.7514 279° West 418 481 36,000  Level FlightAware Transoceanic
Mon 09:53:00 AM 57.7854 -26.9666 279° West 418 481 36,000  Level FlightAware Transoceanic
Mon 09:54:00 AM 57.8031 -27.1820 279° West 418 481 36,000  Level FlightAware Transoceanic
Mon 09:55:00 AM 57.8204 -27.3976 279° West 418 481 36,000  Level FlightAware Transoceanic
Mon 09:56:00 AM 57.8374 -27.6135 278° West 418 481 36,000  Level FlightAware Transoceanic
Mon 09:57:00 AM 57.8540 -27.8295 278° West 418 481 36,000  Level FlightAware Transoceanic
Mon 09:58:00 AM 57.8703 -28.0457 278° West 418 481 36,000  Level FlightAware Transoceanic
Mon 09:59:00 AM 57.8862 -28.2621 278° West 418 481 36,000  Level FlightAware Transoceanic
Mon 10:00:00 AM 57.9017 -28.4788 278° West 418 481 36,000  Level FlightAware Transoceanic
Mon 10:01:00 AM 57.9169 -28.6956 277° West 418 481 36,000  Level FlightAware Transoceanic
Mon 10:02:00 AM 57.9316 -28.9125 277° West 418 481 36,000  Level FlightAware Transoceanic
Mon 10:03:00 AM 57.9461 -29.1297 277° West 418 481 36,000  Level FlightAware Transoceanic
Mon 10:04:00 AM 57.9601 -29.3470 277° West 418 481 36,000  Level FlightAware Transoceanic
Mon 10:05:00 AM 57.9738 -29.5645 277° West 418 481 36,000  Level FlightAware Transoceanic
Mon 10:06:00 AM 57.9871 -29.7822 276° West 418 481 36,000  Level FlightAware Transoceanic
Mon 10:07:00 AM 57.9749 -30.0010 264° West  Level Estimated
Mon 10:08:00 AM 57.9624 -30.2197 264° West  Level Estimated
Mon 10:09:00 AM 57.9495 -30.4383 264° West  Level Estimated
Mon 10:09:38 AM 58.0000 -30.0000 274° West 433 498 36,000  Level ETMS Enhanced Traffic Management System
Mon 10:10:00 AM 57.9362 -30.6567 264° West  Level Estimated
Mon 10:11:00 AM 57.9226 -30.8749 263° West  Level Estimated
Mon 10:12:00 AM 57.9086 -31.0925 263° West  Level Estimated
Mon 10:13:00 AM 57.8942 -31.3099 263° West  Level Estimated
Mon 10:14:00 AM 57.8795 -31.5271 263° West  Level Estimated
Mon 10:15:00 AM 58.0583 -31.8147 273° West 433 498 36,000  Level FlightAware Transoceanic
Mon 10:16:00 AM 58.0638 -32.0419 273° West 433 498 36,000  Level FlightAware Transoceanic
Mon 10:17:00 AM 58.0689 -32.2692 272° West 433 498 36,000  Level FlightAware Transoceanic
Mon 10:18:00 AM 58.0735 -32.4966 272° West 433 498 36,000  Level FlightAware Transoceanic
Mon 10:19:00 AM 58.0778 -32.7240 272° West 433 498 36,000  Level FlightAware Transoceanic
Mon 10:20:00 AM 58.0816 -32.9514 272° West 433 498 36,000  Level FlightAware Transoceanic
Mon 10:21:00 AM 58.0851 -33.1789 272° West 433 498 36,000  Level FlightAware Transoceanic
Mon 10:22:00 AM 58.0881 -33.4065 271° West 433 498 36,000  Level FlightAware Transoceanic
Mon 10:23:00 AM 58.0908 -33.6340 271° West 433 498 36,000  Level FlightAware Transoceanic
Mon 10:24:00 AM 58.0930 -33.8617 271° West 433 498 36,000  Level FlightAware Transoceanic
Mon 10:25:00 AM 58.0948 -34.0893 271° West 433 498 36,000  Level FlightAware Transoceanic
Mon 10:26:00 AM 58.0963 -34.3170 271° West 433 498 36,000  Level FlightAware Transoceanic
Mon 10:27:00 AM 58.0973 -34.5446 270° West 433 498 36,000  Level FlightAware Transoceanic
Mon 10:28:00 AM 58.0979 -34.7723 270° West 433 498 36,000  Level FlightAware Transoceanic
Mon 10:29:00 AM 58.0981 -35.0000 270° West 433 498 36,000  Level FlightAware Transoceanic
Mon 10:30:00 AM 58.0979 -35.2277 270° West 433 498 36,000  Level FlightAware Transoceanic
Mon 10:31:00 AM 58.0973 -35.4554 270° West 433 498 36,000  Level FlightAware Transoceanic
Mon 10:32:00 AM 58.0963 -35.6830 269° West 433 498 36,000  Level FlightAware Transoceanic
Mon 10:33:00 AM 58.0948 -35.9107 269° West 433 498 36,000  Level FlightAware Transoceanic
Mon 10:34:00 AM 58.0930 -36.1383 269° West 433 498 36,000  Level FlightAware Transoceanic
Mon 10:35:00 AM 58.0908 -36.3660 269° West 433 498 36,000  Level FlightAware Transoceanic
Mon 10:36:00 AM 58.0881 -36.5935 269° West 433 498 36,000  Level FlightAware Transoceanic
Mon 10:36:28 AM 58.0667 -36.6667 267° West 450 518 36,000  Level Gander Center
Mon 10:37:00 AM 58.0851 -36.8211 268° West 433 498 36,000  Level FlightAware Transoceanic
Mon 10:38:00 AM 58.0816 -37.0486 268° West 433 498 36,000  Level FlightAware Transoceanic
Mon 10:38:28 AM 58.0667 -37.1333 270° West 450 518 36,000  Level Gander Center
Mon 10:39:00 AM 58.0778 -37.2760 268° West 433 498 36,000  Level FlightAware Transoceanic
Mon 10:40:00 AM 58.0735 -37.5034 268° West 433 498 36,000  Level FlightAware Transoceanic
Mon 10:40:00 AM 58.0244 -37.4610 256° West  Level Estimated
Mon 10:41:00 AM 58.0689 -37.7308 268° West 433 498 36,000  Level FlightAware Transoceanic
Mon 10:41:28 AM 58.0500 -37.8333 256° West 450 518 36,000  Level Gander Center
Mon 10:42:00 AM 58.0638 -37.9581 267° West 433 498 36,000  Level FlightAware Transoceanic
Mon 10:42:28 AM 58.0500 -38.0667 270° West 450 518 36,000  Level Gander Center
Mon 10:43:28 AM 58.0333 -38.3000 262° West 440 506 36,000  Level Gander Center
Mon 10:45:00 AM 57.9874 -38.6256 255° West  Level Estimated
Mon 10:45:28 AM 58.0167 -38.7667 255° West 440 506 36,000  Level Gander Center
Mon 10:46:28 AM 58.0333 -39.0000 278° West 440 506 36,000  Level Gander Center
Mon 10:47:00 AM 57.8211 -38.9471 256° West  Level Estimated
Mon 10:47:28 AM 58.0167 -39.2000 261° West 440 506 36,000  Level Gander Center
Mon 10:48:28 AM 58.0000 -39.4333 262° West 440 506 36,000  Level Gander Center
Mon 10:49:28 AM 58.0000 -39.6667 270° West 440 506 36,000  Level Gander Center
Mon 10:50:28 AM 57.9833 -39.9000 262° West 450 518 36,000  Level Gander Center
Mon 10:52:00 AM 57.9644 -40.2338 254° West  Level FlightAware Approximate
Mon 10:56:28 AM 57.7833 -41.2500 252° West 450 518 36,000  Level Gander Center
Mon 10:57:28 AM 57.7500 -41.4667 254° West 450 518 36,000  Level Gander Center
Mon 10:58:28 AM 57.7000 -41.6833 247° West 450 518 36,000  Level Gander Center
Mon 10:59:00 AM 57.7257 -41.7243 254° West  Level FlightAware Approximate
Mon 10:59:28 AM 57.6667 -41.9333 256° West 440 506 36,000  Level Gander Center
Mon 11:00:00 AM 57.6902 -41.9356 253° West  Level FlightAware Approximate
Mon 11:01:00 AM 57.6543 -42.1465 252° West  Level FlightAware Approximate
Mon 11:01:00 AM 57.6123 -42.2571 253° West  Level FlightAware Approximate
Mon 11:02:00 AM 57.6181 -42.3569 252° West  Level FlightAware Approximate
Mon 11:05:28 AM 57.4333 -43.2000 251° West 440 506 36,000  Level Gander Center
Mon 11:06:28 AM 57.4000 -43.4000 253° West 440 506 36,000  Level Gander Center
Mon 11:07:28 AM 57.3500 -43.6167 247° West 440 506 36,000  Level Gander Center
Mon 11:08:00 AM 57.3537 -43.7229 252° West  Level FlightAware Approximate
Mon 11:08:28 AM 57.3167 -43.8500 255° West 440 506 36,000  Level Gander Center
Mon 11:09:00 AM 57.3153 -43.9306 251° West  Level FlightAware Approximate
Mon 11:10:00 AM 57.2767 -44.1379 251° West  Level FlightAware Approximate
Mon 11:10:00 AM 57.2580 -44.1681 251° West  Level FlightAware Approximate
Mon 11:10:28 AM 57.2333 -44.2667 251° West 440 506 36,000  Level Gander Center
Mon 11:11:00 AM 57.2377 -44.3447 251° West  Level FlightAware Approximate
Mon 11:12:00 AM 57.1740 -44.5836 251° West  Level FlightAware Approximate
Mon 11:13:28 AM 57.1167 -44.8833 251° West 430 495 36,000  Level Gander Center
Mon 11:15:00 AM 57.0558 -45.1982 251° West  Level FlightAware Approximate
Mon 11:15:28 AM 57.0333 -45.3000 251° West 440 506 36,000  Level Gander Center
Mon 11:16:28 AM 57.0000 -45.5000 253° West 440 506 36,000  Level Gander Center
Mon 11:17:28 AM 56.9667 -45.7000 253° West 440 506 36,000  Level Gander Center
Mon 11:18:28 AM 56.9000 -45.9167 241° Southwest 440 506 36,000  Level Gander Center
Mon 11:19:00 AM 56.8929 -46.0174 251° West  Level FlightAware Approximate
Mon 11:20:00 AM 56.8373 -46.2291 250° West  Level FlightAware Approximate
Mon 11:20:28 AM 56.8333 -46.3167 250° West 430 495 36,000  Level Gander Center
Mon 11:21:28 AM 56.8000 -46.5167 253° West 430 495 36,000  Level Gander Center
Mon 11:22:28 AM 56.7500 -46.7167 246° West 430 495 36,000  Level Gander Center
Mon 11:24:00 AM 56.6843 -47.0258 249° West  Level FlightAware Approximate
Mon 11:24:28 AM 56.6500 -47.1167 249° West 420 483 36,000  Level Gander Center
Mon 11:26:28 AM 56.5667 -47.5000 249° West 420 483 36,000  Level Gander Center
Mon 11:27:28 AM 56.5333 -47.7000 253° West 420 483 36,000  Level Gander Center
Mon 11:28:28 AM 56.4833 -47.9000 246° West 420 483 36,000  Level Gander Center
Mon 11:30:00 AM 56.4159 -48.2057 248° West  Level FlightAware Approximate
Mon 11:32:06 AM 56.3167 -48.5833 248° West 410 472 36,000  Level Gander Center
Mon 11:34:00 AM 56.2243 -48.9537 246° West  Level Estimated
Mon 11:37:00 AM 56.0987 -49.5877 248° West  Level FlightAware Approximate
Mon 11:41:00 AM 55.8748 -50.3028 246° West  Level Estimated
Mon 11:42:00 AM 55.8237 -50.4936 245° Southwest  Level Estimated
Mon 11:42:00 AM 56.0000 -50.0000 250° West 419 482 36,000  Level ETMS Enhanced Traffic Management System
Mon 11:43:00 AM 55.7723 -50.6838 244° Southwest  Level Estimated
Mon 11:44:00 AM 55.7206 -50.8735 244° Southwest  Level Estimated
Mon 11:45:00 AM 55.6685 -51.0628 244° Southwest  Level Estimated
Mon 11:46:00 AM 55.6162 -51.2515 244° Southwest  Level Estimated
Mon 11:47:00 AM 55.5636 -51.4397 244° Southwest  Level Estimated
Mon 11:48:00 AM 55.6276 -51.7452 248° West 419 482 36,000  Level FlightAware Transoceanic
Mon 11:49:00 AM 55.5847 -51.9370 248° West 419 482 36,000  Level FlightAware Transoceanic
Mon 11:50:00 AM 55.5415 -52.1284 248° West 419 482 36,000  Level FlightAware Transoceanic
Mon 11:51:00 AM 55.4980 -52.3194 248° West 419 482 36,000  Level FlightAware Transoceanic
Mon 11:52:00 AM 55.4542 -52.5100 248° West 419 482 36,000  Level FlightAware Transoceanic
Mon 11:53:00 AM 55.4101 -52.7001 248° West 419 482 36,000  Level FlightAware Transoceanic
Mon 11:54:00 AM 55.3658 -52.8898 248° West 419 482 36,000  Level FlightAware Transoceanic
Mon 11:55:00 AM 55.3211 -53.0791 247° West 419 482 36,000  Level FlightAware Transoceanic
Mon 11:55:16 AM 55.3000 -53.0833 247° West 430 495 36,000  Level Gander Center
Mon 11:56:00 AM 55.2761 -53.2680 247° West 419 482 36,000  Level FlightAware Transoceanic
Mon 11:57:00 AM 55.2309 -53.4564 247° West 419 482 36,000  Level FlightAware Transoceanic
Mon 11:57:00 AM 55.2018 -53.4004 242° Southwest  Level Estimated
Mon 11:57:16 AM 55.2167 -53.4500 242° Southwest 430 495 36,000  Level Gander Center
Mon 11:58:00 AM 55.1853 -53.6444 247° West 419 482 36,000  Level FlightAware Transoceanic
Mon 11:59:00 AM 55.1395 -53.8320 247° West 419 482 36,000  Level FlightAware Transoceanic
Mon 12:00:00 PM 55.0934 -54.0192 247° West 419 482 36,000  Level FlightAware Transoceanic
Mon 12:00:00 PM 55.1451 -53.6775 241° Southwest  Level Estimated
Mon 12:05:16 PM 54.8333 -54.9833 240° Southwest 420 483 36,000  Level Gander Center
Mon 12:06:16 PM 54.8000 -55.1667 253° West 420 483 36,000  Level Gander Center
Mon 12:07:00 PM 54.7363 -54.9362 241° Southwest  Level Estimated
Mon 12:08:00 PM 54.6769 -55.1139 240° Southwest  Level Estimated
Mon 12:08:07 PM 54.7000 -55.4833 241° Southwest 420 483 36,000  Level Moncton Center
Mon 12:09:00 PM 54.6171 -55.2911 240° Southwest  Level Estimated
Mon 12:09:07 PM 54.6500 -55.7000 248° West 420 483 36,000  Level Moncton Center
Mon 12:10:00 PM 54.5573 -55.4674 240° Southwest  Level Estimated
Mon 12:10:07 PM 54.6000 -55.8500 240° Southwest 420 483 36,000  Level Moncton Center
Mon 12:11:07 PM 54.5333 -56.0333 238° Southwest 430 495 36,000  Level Moncton Center
Mon 12:12:07 PM 54.4500 -56.2000 229° Southwest 430 495 36,000  Level Moncton Center
Mon 12:13:07 PM 54.3833 -56.3500 233° Southwest 430 495 36,000  Level Moncton Center
Mon 12:14:07 PM 54.3167 -56.5333 238° Southwest 430 495 36,000  Level Moncton Center
Mon 12:16:07 PM 54.1667 -56.8500 231° Southwest 430 495 36,000  Level Moncton Center
Mon 12:17:07 PM 54.1000 -57.0000 233° Southwest 430 495 36,000  Level Moncton Center
Mon 12:18:07 PM 54.0333 -57.2000 240° Southwest 430 495 36,000  Level Moncton Center
Mon 12:20:07 PM 53.8833 -57.5000 230° Southwest 420 483 36,000  Level Moncton Center
Mon 12:22:00 PM 53.7647 -57.7837 235° Southwest  Level FlightAware Approximate
Mon 12:22:16 PM 53.7333 -57.8333 235° Southwest 420 483 36,000  Level Gander Center
Mon 12:24:07 PM 53.6000 -58.1333 233° Southwest 430 495 36,000  Level Moncton Center
Mon 12:25:07 PM 53.5333 -58.3167 239° Southwest 430 495 36,000  Level Moncton Center
Mon 12:26:07 PM 53.4667 -58.4667 233° Southwest 430 495 36,000  Level Moncton Center
Mon 12:27:07 PM 53.4000 -58.6500 239° Southwest 430 495 36,000  Level Moncton Center
Mon 12:28:07 PM 53.3333 -58.8000 233° Southwest 430 495 36,000  Level Moncton Center
Mon 12:29:16 PM 53.2500 -58.9833 233° Southwest 430 495 36,000  Level Gander Center
Mon 12:30:16 PM 53.2000 -59.1667 246° West 430 495 36,000  Level Gander Center
Mon 12:31:16 PM 53.1333 -59.3333 236° Southwest 430 495 36,000  Level Gander Center
Mon 12:32:16 PM 53.0500 -59.5000 230° Southwest 430 495 36,000  Level Gander Center
Mon 12:33:16 PM 52.9833 -59.6500 234° Southwest 430 495 36,000  Level Gander Center
Mon 12:35:16 PM 52.8500 -59.9500 234° Southwest 420 483 36,000  Level Gander Center
Mon 12:36:16 PM 52.7833 -60.1167 237° Southwest 420 483 36,000  Level Gander Center
Mon 12:38:20 PM 52.6333 -60.4500 234° Southwest 430 495 36,000  Level Gander Center
Mon 12:39:16 PM 52.5833 -60.6000 241° Southwest 430 495 36,000  Level Gander Center
Mon 12:40:07 PM 52.5167 -60.7333 231° Southwest 420 483 36,000  Level Moncton Center
Mon 12:42:07 PM 52.3667 -61.0500 232° Southwest 420 483 36,000  Level Moncton Center
Mon 12:43:07 PM 52.3167 -61.2000 241° Southwest 420 483 36,000  Level Moncton Center
Mon 12:44:07 PM 52.2333 -61.3333 224° Southwest 410 472 36,000  Level Moncton Center
Mon 12:46:00 PM 52.1142 -61.6065 235° Southwest  Level FlightAware Approximate
Mon 12:47:07 PM 52.0333 -61.7833 235° Southwest 400 460 36,000  Level Moncton Center
Mon 12:48:07 PM 51.9833 -61.9333 242° Southwest 400 460 36,000  Level Moncton Center
Mon 12:49:07 PM 51.9167 -62.0667 231° Southwest 390 449 36,000  Level Moncton Center
Mon 12:50:07 PM 51.8500 -62.2000 231° Southwest 390 449 36,000  Level Moncton Center
Mon 12:51:07 PM 51.7667 -62.3500 228° Southwest 390 449 36,000  Level Moncton Center
Mon 12:52:07 PM 51.7000 -62.4833 231° Southwest 390 449 36,000  Level Moncton Center
Mon 12:53:07 PM 51.6333 -62.6500 237° Southwest 390 449 36,000  Level Moncton Center
Mon 12:54:07 PM 51.5667 -62.7500 223° Southwest 390 449 36,000  Level Moncton Center
Mon 12:55:07 PM 51.5000 -62.8833 231° Southwest 390 449 36,000  Level Moncton Center
Mon 12:56:07 PM 51.4333 -63.0333 235° Southwest 390 449 36,000  Level Moncton Center
Mon 12:57:16 PM 51.3667 -63.1833 235° Southwest 390 449 36,000  Level Gander Center
Mon 12:58:16 PM 51.3000 -63.3167 231° Southwest 390 449 36,000  Level Gander Center
Mon 12:59:16 PM 51.2333 -63.4667 235° Southwest 390 449 36,000  Level Gander Center
Mon 01:00:07 PM 51.1833 -63.5667 231° Southwest 390 449 36,000  Level Moncton Center
Mon 01:03:07 PM 50.9667 -64.0000 232° Southwest 390 449 36,000  Level Moncton Center
Mon 01:04:07 PM 50.9000 -64.1333 232° Southwest 400 460 36,000  Level Moncton Center
Mon 01:05:07 PM 50.8333 -64.2667 232° Southwest 400 460 36,000  Level Moncton Center
Mon 01:06:16 PM 50.7500 -64.4000 225° Southwest 400 460 36,000  Level Gander Center
Mon 01:08:07 PM 50.6167 -64.6667 232° Southwest 390 449 36,000  Level Moncton Center
Mon 01:09:07 PM 50.5500 -64.8000 232° Southwest 390 449 36,000  Level Moncton Center
Mon 01:10:07 PM 50.4833 -64.9167 228° Southwest 390 449 36,000  Level Moncton Center
Mon 01:11:16 PM 50.4000 -65.0667 229° Southwest 390 449 36,000  Level Gander Center
Mon 01:14:07 PM 50.2000 -65.4167 228° Southwest 390 449 36,000  Level Moncton Center
Mon 01:15:07 PM 50.1167 -65.5667 229° Southwest 390 449 36,000  Level Moncton Center
Mon 01:16:07 PM 50.0500 -65.6667 224° Southwest 390 449 36,000  Level Moncton Center
Mon 01:17:07 PM 49.9833 -65.8333 238° Southwest 390 449 36,000  Level Moncton Center
Mon 01:18:07 PM 49.9167 -65.9500 228° Southwest 390 449 36,000  Level Moncton Center
Mon 01:18:34 PM 49.8833 -65.9667 198° South 390 449 36,000  Level Montreal Center
Mon 01:19:34 PM 49.8167 -66.1000 232° Southwest 390 449 36,000  Level Montreal Center
Mon 01:20:34 PM 49.7333 -66.2333 226° Southwest 390 449 36,000  Level Montreal Center
Mon 01:21:34 PM 49.6667 -66.3667 232° Southwest 390 449 36,000  Level Montreal Center
Mon 01:22:34 PM 49.6000 -66.4833 229° Southwest 390 449 36,000  Level Montreal Center
Mon 01:23:34 PM 49.5333 -66.6000 229° Southwest 390 449 36,000  Level Montreal Center
Mon 01:25:07 PM 49.4167 -66.8500 234° Southwest 400 460 36,000  Level Moncton Center
Mon 01:25:34 PM 49.3833 -66.8500 180° South 400 460 36,000  Level Montreal Center
Mon 01:26:34 PM 49.3167 -67.0000 236° Southwest 400 460 36,000  Level Montreal Center
Mon 01:28:16 PM 49.1833 -67.2500 231° Southwest 400 460 36,000  Level Gander Center
Mon 01:29:07 PM 49.1167 -67.3667 229° Southwest 410 472 36,000  Level Moncton Center
Mon 01:30:07 PM 49.0333 -67.4833 223° Southwest 410 472 36,000  Level Moncton Center
Mon 01:32:07 PM 48.8833 -67.7333 228° Southwest 410 472 36,000  Level Moncton Center
Mon 01:33:07 PM 48.8000 -67.8833 230° Southwest 420 483 36,000  Level Moncton Center
Mon 01:34:07 PM 48.7333 -68.0000 229° Southwest 420 483 36,000  Level Moncton Center
Mon 01:34:34 PM 48.7000 -68.0333 213° Southwest 420 483 36,000  Level Montreal Center
Mon 01:35:34 PM 48.6167 -68.1500 223° Southwest 420 483 36,000  Level Montreal Center
Mon 01:37:07 PM 48.4833 -68.3833 229° Southwest 420 483 36,000  Level Moncton Center
Mon 01:43:32 PM 47.9850 -69.2320 229° Southwest 430 495 36,000  Level FlightAware ADS-B
Mon 01:44:12 PM 47.9290 -69.3200 226° Southwest 430 495 36,000  Level FlightAware ADS-B
Mon 01:44:57 PM 47.8690 -69.4150 227° Southwest 430 495 36,000  Level FlightAware ADS-B
Mon 01:45:22 PM 47.8350 -69.4680 226° Southwest 430 495 36,000  Level FlightAware ADS-B
Mon 01:46:02 PM 47.7800 -69.5550 227° Southwest 432 497 36,000  Level FlightAware ADS-B
Mon 01:46:47 PM 47.7220 -69.6560 230° Southwest 432 497 36,000  Level FlightAware ADS-B
Mon 01:47:27 PM 47.6720 -69.7490 231° Southwest 431 496 36,000  Level FlightAware ADS-B
Mon 01:48:12 PM 47.6150 -69.8520 231° Southwest 433 498 36,000  Level FlightAware ADS-B
Mon 01:48:37 PM 47.5840 -69.9100 232° Southwest 434 499 36,000  Level FlightAware ADS-B
Mon 01:49:22 PM 47.5280 -70.0130 231° Southwest 436 502 36,000  Level FlightAware ADS-B
Mon 01:50:02 PM 47.4770 -70.1060 231° Southwest 437 503 36,000  Level FlightAware ADS-B
Mon 01:50:47 PM 47.4200 -70.2090 231° Southwest 437 503 36,000  Level FlightAware ADS-B
Mon 01:51:27 PM 47.3690 -70.3010 231° Southwest 436 502 36,000  Level FlightAware ADS-B
Mon 01:52:07 PM 47.3180 -70.3930 231° Southwest 437 503 36,000  Level FlightAware ADS-B
Mon 01:52:52 PM 47.2610 -70.4950 231° Southwest 437 503 36,000  Level FlightAware ADS-B
Mon 01:53:32 PM 47.2100 -70.5870 231° Southwest 437 503 36,000  Level FlightAware ADS-B
Mon 01:54:17 PM 47.1520 -70.6900 230° Southwest 439 505 36,000  Level FlightAware ADS-B
Mon 01:54:57 PM 47.1010 -70.7820 231° Southwest 439 505 36,000  Level FlightAware ADS-B
Mon 01:55:42 PM 47.0430 -70.8840 230° Southwest 441 507 36,000  Level FlightAware ADS-B
Mon 01:56:22 PM 46.9920 -70.9750 231° Southwest 441 507 36,000  Level FlightAware ADS-B
Mon 01:57:07 PM 46.9350 -71.0740 230° Southwest 443 510 36,000  Level FlightAware ADS-B
Mon 01:57:47 PM 46.8800 -71.1710 230° Southwest 443 510 36,000  Level FlightAware ADS-B
Mon 01:58:27 PM 46.8300 -71.2580 230° Southwest 444 511 36,000  Level FlightAware ADS-B
Mon 01:59:12 PM 46.7690 -71.3650 230° Southwest 445 512 36,000  Level FlightAware ADS-B
Mon 01:59:42 PM 46.7290 -71.4340 230° Southwest 445 512 36,000  Level FlightAware ADS-B
Mon 02:00:22 PM 46.6770 -71.5250 230° Southwest 445 512 36,000  Level FlightAware ADS-B
Mon 02:01:02 PM 46.6240 -71.6160 230° Southwest 446 513 36,000 -282 Level FlightAware ADS-B
Mon 02:01:47 PM 46.5630 -71.7170 229° Southwest 443 510 35,600 -847 Descending FlightAware ADS-B
Mon 02:02:27 PM 46.5030 -71.7990 223° Southwest 445 512 34,800 -1,950 Descending FlightAware ADS-B
Mon 02:03:07 PM 46.4420 -71.8780 222° Southwest 450 518 33,000 -2,824 Descending FlightAware ADS-B
Mon 02:03:52 PM 46.3720 -71.9680 222° Southwest 448 516 30,800 -2,753 Descending FlightAware ADS-B
Mon 02:04:32 PM 46.3110 -72.0460 221° Southwest 440 506 29,100 -2,550 Descending FlightAware ADS-B
Mon 02:05:12 PM 46.2510 -72.1230 222° Southwest 431 496 27,400 -2,541 Descending FlightAware ADS-B
Mon 02:05:57 PM 46.1850 -72.2080 222° Southwest 420 483 25,500 -2,541 Descending FlightAware ADS-B
Mon 02:06:37 PM 46.1270 -72.2810 221° Southwest 412 474 23,800 -2,550 Descending FlightAware ADS-B
Mon 02:07:17 PM 46.0710 -72.3520 221° Southwest 404 465 22,100 -2,541 Descending FlightAware ADS-B
Mon 02:08:02 PM 46.0100 -72.4300 222° Southwest 396 456 20,200 -2,541 Descending FlightAware ADS-B
Mon 02:08:42 PM 45.9550 -72.4990 221° Southwest 388 447 18,500 -2,612 Descending FlightAware ADS-B
Mon 02:09:27 PM 45.8940 -72.5760 221° Southwest 381 438 16,500 -2,541 Descending FlightAware ADS-B
Mon 02:10:07 PM 45.8420 -72.6410 221° Southwest 372 428 14,900 -2,400 Descending FlightAware ADS-B
Mon 02:10:47 PM 45.7910 -72.7050 221° Southwest 362 417 13,300 -2,259 Descending FlightAware ADS-B
Mon 02:11:32 PM 45.7460 -72.7840 231° Southwest 350 403 11,700 -2,047 Descending FlightAware ADS-B
Mon 02:12:12 PM 45.7340 -72.8730 259° West 339 390 10,400 -1,271 Descending FlightAware ADS-B
Mon 02:12:57 PM 45.7240 -72.9690 262° West 290 334 9,900 -600 Descending FlightAware ADS-B
Mon 02:13:12 PM 45.7220 -72.9930 263° West 278 320 9,800 -900 Descending FlightAware ADS-B
Mon 02:13:37 PM 45.7170 -73.0390 261° West 273 314 9,300 -1,418 Descending FlightAware ADS-B
Mon 02:14:07 PM 45.7120 -73.0940 263° West 271 312 8,500 -1,527 Descending FlightAware ADS-B
Mon 02:14:32 PM 45.7060 -73.1370 259° West 268 308 7,900 -1,527 Descending FlightAware ADS-B
Mon 02:15:02 PM 45.6980 -73.1870 257° West 263 303 7,100 -1,500 Descending FlightAware ADS-B
Mon 02:15:32 PM 45.6890 -73.2380 256° West 262 302 6,400 -1,418 Descending FlightAware ADS-B
Mon 02:15:57 PM 45.6820 -73.2800 257° West 257 296 5,800 -1,418 Descending FlightAware ADS-B
Mon 02:16:27 PM 45.6740 -73.3300 257° West 252 290 5,100 -1,200 Descending FlightAware ADS-B
Mon 02:16:42 PM 45.6700 -73.3530 256° West 250 288 4,900 -800 Descending FlightAware ADS-B
Mon 02:17:12 PM 45.6620 -73.4000 256° West 242 278 4,500 -600 Descending FlightAware ADS-B
Mon 02:17:32 PM 45.6560 -73.4300 254° West 237 273 4,400 -545 Descending FlightAware ADS-B
Mon 02:18:07 PM 45.6470 -73.4840 257° West 227 261 4,000 -700 Descending FlightAware ADS-B
Mon 02:18:32 PM 45.6410 -73.5190 256° West 225 259 3,700 -600 Descending FlightAware ADS-B
Mon 02:18:47 PM 45.6320 -73.5400 239° Southwest 221 254 3,600 -450 Descending FlightAware ADS-B
Mon 02:19:12 PM 45.6150 -73.5620 222° Southwest 213 245 3,400 -764 Descending FlightAware ADS-B
Mon 02:19:42 PM 45.5940 -73.5900 223° Southwest 201 231 2,900 -1,000 Descending FlightAware ADS-B
Mon 02:20:12 PM 45.5740 -73.6170 223° Southwest 189 217 2,400 -982 Descending FlightAware ADS-B
Mon 02:20:37 PM 45.5570 -73.6390 222° Southwest 191 220 2,000 -960 Descending FlightAware ADS-B
Mon 02:21:02 PM 45.5420 -73.6590 223° Southwest 177 204 1,600 -982 Descending FlightAware ADS-B
Mon 02:21:32 PM 45.5250 -73.6810 222° Southwest 165 190 1,100 -900 Descending FlightAware ADS-B
Mon 02:22:02 PM 45.5100 -73.7010 223° Southwest 146 168 700 -800 Descending FlightAware ADS-B
Mon 02:22:32 PM 45.4960 -73.7200 224° Southwest 139 160 300 -667 Descending FlightAware ADS-B
Mon 02:22:47 PM 45.4900 -73.7280 223° Southwest 139 160 200 -400 Descending FlightAware ADS-B
Mon 02:23:02 PM 45.4830 -73.7360 219° Southwest 140 161 -800 Descending FlightAware ADS-B

Login

Don't have an account? Register now (free) for customized features, flight alerts, and more!